createdAt,value
2018-07-13T00:00:19.971Z,0
2018-07-13T00:01:22.258Z,0
2018-07-13T00:02:24.257Z,0
2018-07-13T00:03:26.264Z,0
2018-07-13T00:04:28.272Z,0
2018-07-13T00:05:30.562Z,0
2018-07-13T00:06:32.565Z,0
2018-07-13T00:07:34.634Z,0
2018-07-13T00:08:36.636Z,0
2018-07-13T00:09:39.051Z,0
2018-07-13T00:10:41.057Z,0
2018-07-13T00:11:43.413Z,0
2018-07-13T00:12:45.402Z,0
2018-07-13T00:13:47.434Z,0
2018-07-13T00:14:49.432Z,0
2018-07-13T00:15:51.496Z,0
2018-07-13T00:16:53.494Z,0
2018-07-13T00:17:55.555Z,0
2018-07-13T00:18:57.836Z,0
2018-07-13T00:19:59.886Z,0
2018-07-13T00:21:01.882Z,0
2018-07-13T00:22:03.936Z,0
2018-07-13T00:23:05.933Z,0
2018-07-13T00:24:07.962Z,0
2018-07-13T00:25:10.241Z,0
2018-07-13T00:26:12.307Z,0
2018-07-13T00:27:14.591Z,0
2018-07-13T00:28:16.798Z,0
2018-07-13T00:29:18.797Z,0
2018-07-13T00:30:20.788Z,0
2018-07-13T00:31:23.080Z,0
2018-07-13T00:32:25.358Z,0
2018-07-13T00:33:27.354Z,0
2018-07-13T00:34:29.348Z,0
2018-07-13T00:35:31.342Z,0
2018-07-13T00:36:33.336Z,0
2018-07-13T00:37:35.341Z,0
2018-07-13T00:38:37.342Z,0
2018-07-13T00:39:39.347Z,0
2018-07-13T00:40:41.337Z,0
2018-07-13T00:41:43.617Z,0
2018-07-13T00:42:45.633Z,0
2018-07-13T00:43:47.648Z,0
2018-07-13T00:44:49.637Z,0
2018-07-13T00:45:51.642Z,0
2018-07-13T00:46:53.637Z,0
2018-07-13T00:47:55.633Z,0
2018-07-13T00:48:57.631Z,0
2018-07-13T00:49:59.629Z,0
2018-07-13T00:51:01.633Z,0
2018-07-13T00:52:04.017Z,0
2018-07-13T00:53:05.999Z,0
2018-07-13T00:54:08.008Z,0
2018-07-13T00:55:10.741Z,0
2018-07-13T00:56:12.738Z,0
2018-07-13T00:57:15.135Z,0
2018-07-13T00:58:17.413Z,0
2018-07-13T00:59:19.410Z,0
2018-07-13T01:00:21.398Z,0
2018-07-13T01:01:23.398Z,0
2018-07-13T01:02:25.407Z,0
2018-07-13T01:03:27.403Z,0
2018-07-13T01:04:29.390Z,0
2018-07-13T01:05:31.386Z,0
2018-07-13T01:06:33.383Z,0
2018-07-13T01:07:35.386Z,0
2018-07-13T01:08:37.383Z,0
2018-07-13T01:09:39.388Z,0
2018-07-13T01:10:41.382Z,0
2018-07-13T01:11:43.383Z,0
2018-07-13T01:12:45.376Z,0
2018-07-13T01:13:47.379Z,0
2018-07-13T01:14:49.377Z,0
2018-07-13T01:15:51.374Z,0
2018-07-13T01:16:53.370Z,0
2018-07-13T01:17:55.366Z,0
2018-07-13T01:18:57.360Z,0
2018-07-13T01:19:59.361Z,0
2018-07-13T01:21:01.351Z,0
2018-07-13T01:22:03.626Z,0
2018-07-13T01:23:05.624Z,0
2018-07-13T01:24:07.613Z,0
2018-07-13T01:25:09.896Z,0
2018-07-13T01:26:11.908Z,0
2018-07-13T01:27:13.904Z,0
2018-07-13T01:28:16.190Z,0
2018-07-13T01:29:18.181Z,0
2018-07-13T01:30:20.175Z,0
2018-07-13T01:31:22.454Z,0
2018-07-13T01:32:24.445Z,0
2018-07-13T01:33:26.454Z,0
2018-07-13T01:34:28.451Z,0
2018-07-13T01:35:30.822Z,0
2018-07-13T01:36:32.825Z,0
2018-07-13T01:37:34.825Z,0
2018-07-13T01:38:37.121Z,0
2018-07-13T01:39:39.120Z,0
2018-07-13T01:40:41.109Z,0
2018-07-13T01:41:43.496Z,0
2018-07-13T01:42:45.498Z,0
2018-07-13T01:43:47.491Z,0
2018-07-13T01:44:49.482Z,0
2018-07-13T01:45:51.863Z,0
2018-07-13T01:46:53.863Z,0
2018-07-13T01:47:56.243Z,0
2018-07-13T01:48:58.629Z,0
2018-07-13T01:50:01.011Z,0
2018-07-13T01:51:03.007Z,0
2018-07-13T01:52:04.993Z,0
2018-07-13T01:53:06.990Z,0
2018-07-13T01:54:09.657Z,0
2018-07-13T01:55:12.041Z,0
2018-07-13T01:56:14.038Z,0
2018-07-13T01:57:16.041Z,0
2018-07-13T01:58:18.036Z,0
2018-07-13T01:59:20.317Z,0
2018-07-13T02:00:22.306Z,0
2018-07-13T02:01:24.308Z,0
2018-07-13T02:02:26.306Z,0
2018-07-13T02:03:28.694Z,0
2018-07-13T02:04:30.692Z,0
2018-07-13T02:05:32.689Z,0
2018-07-13T02:06:34.692Z,0
2018-07-13T02:07:36.683Z,0
2018-07-13T02:08:38.681Z,0
2018-07-13T02:09:40.684Z,0
2018-07-13T02:10:42.680Z,0
2018-07-13T02:11:44.961Z,0
2018-07-13T02:12:46.958Z,0
2018-07-13T02:13:48.957Z,0
2018-07-13T02:14:50.955Z,0
2018-07-13T02:15:52.947Z,0
2018-07-13T02:16:54.950Z,0
2018-07-13T02:17:57.327Z,0
2018-07-13T02:18:59.320Z,0
2018-07-13T02:20:01.318Z,0
2018-07-13T02:21:03.312Z,0
2018-07-13T02:22:05.308Z,0
2018-07-13T02:23:07.307Z,0
2018-07-13T02:24:09.302Z,0
2018-07-13T02:25:11.306Z,0
2018-07-13T02:26:13.302Z,0
2018-07-13T02:27:15.290Z,0
2018-07-13T02:28:17.681Z,0
2018-07-13T02:29:19.685Z,0
2018-07-13T02:30:22.259Z,0
2018-07-13T02:31:24.536Z,0
2018-07-13T02:32:26.529Z,0
2018-07-13T02:33:29.205Z,0
2018-07-13T02:34:31.187Z,0
2018-07-13T02:35:33.569Z,0
2018-07-13T02:36:35.571Z,0
2018-07-13T02:37:38.564Z,0
2018-07-13T02:38:40.568Z,0
2018-07-13T02:39:42.570Z,0
2018-07-13T02:40:44.851Z,0
2018-07-13T02:41:46.849Z,0
2018-07-13T02:42:48.848Z,0
2018-07-13T02:43:51.229Z,0
2018-07-13T02:44:53.804Z,0
2018-07-13T02:45:55.798Z,0
2018-07-13T02:46:57.786Z,0
2018-07-13T02:47:59.796Z,0
2018-07-13T02:49:01.789Z,0
2018-07-13T02:50:04.068Z,0
2018-07-13T02:51:06.364Z,0
2018-07-13T02:52:08.361Z,0
2018-07-13T02:53:10.747Z,0
2018-07-13T02:54:12.743Z,0
2018-07-13T02:55:14.739Z,0
2018-07-13T02:56:17.031Z,0
2018-07-13T02:57:19.018Z,0
2018-07-13T02:58:21.881Z,0
2018-07-13T02:59:23.869Z,0
2018-07-13T03:00:25.877Z,0
2018-07-13T03:01:27.880Z,0
2018-07-13T03:02:30.261Z,0
2018-07-13T03:03:32.263Z,0
2018-07-13T03:04:34.260Z,1
2018-07-13T03:05:36.821Z,1
2018-07-13T03:06:39.198Z,1
2018-07-13T03:07:41.194Z,1
2018-07-13T03:08:43.482Z,1
2018-07-13T03:09:45.473Z,1
2018-07-13T03:10:47.477Z,1
2018-07-13T03:11:49.467Z,1
2018-07-13T03:12:51.850Z,1
2018-07-13T03:13:53.847Z,1
2018-07-13T03:14:55.837Z,1
2018-07-13T03:15:57.830Z,1
2018-07-13T03:17:00.515Z,2
2018-07-13T03:18:03.071Z,2
2018-07-13T03:19:05.733Z,2
2018-07-13T03:20:08.411Z,2
2018-07-13T03:21:10.418Z,2
2018-07-13T03:22:12.887Z,2
2018-07-13T03:23:15.263Z,2
2018-07-13T03:24:17.647Z,2
2018-07-13T03:25:20.029Z,2
2018-07-13T03:26:22.299Z,2
2018-07-13T03:27:24.295Z,3
2018-07-13T03:28:26.303Z,3
2018-07-13T03:29:28.290Z,3
2018-07-13T03:30:30.948Z,4
2018-07-13T03:31:33.692Z,4
2018-07-13T03:32:35.617Z,4
2018-07-13T03:33:37.617Z,4
2018-07-13T03:34:39.606Z,4
2018-07-13T03:35:41.884Z,4
2018-07-13T03:36:44.174Z,4
2018-07-13T03:37:46.171Z,5
2018-07-13T03:38:48.163Z,5
2018-07-13T03:39:50.165Z,5
2018-07-13T03:40:52.750Z,5
2018-07-13T03:41:54.742Z,5
2018-07-13T03:42:56.744Z,5
2018-07-13T03:43:59.172Z,5
2018-07-13T03:45:01.136Z,5
2018-07-13T03:46:03.989Z,6
2018-07-13T03:47:05.983Z,6
2018-07-13T03:48:08.003Z,6
2018-07-13T03:49:09.992Z,6
2018-07-13T03:50:11.992Z,6
2018-07-13T03:51:13.970Z,6
2018-07-13T03:52:15.960Z,6
2018-07-13T03:53:17.964Z,6
2018-07-13T03:54:19.951Z,6
2018-07-13T03:55:21.947Z,6
2018-07-13T03:56:23.937Z,7
2018-07-13T03:57:25.921Z,7
2018-07-13T03:58:27.914Z,8
2018-07-13T03:59:29.905Z,8
2018-07-13T04:00:31.902Z,8
2018-07-13T04:01:33.885Z,7
2018-07-13T04:02:35.873Z,8
2018-07-13T04:03:37.868Z,9
2018-07-13T04:04:39.851Z,9
2018-07-13T04:05:42.120Z,9
2018-07-13T04:06:44.113Z,9
2018-07-13T04:07:46.102Z,10
2018-07-13T04:08:48.372Z,10
2018-07-13T04:09:50.356Z,9
2018-07-13T04:10:52.351Z,9
2018-07-13T04:11:54.732Z,10
2018-07-13T04:12:56.727Z,10
2018-07-13T04:13:58.701Z,9
2018-07-13T04:15:00.694Z,9
2018-07-13T04:16:03.360Z,9
2018-07-13T04:17:05.350Z,10
2018-07-13T04:18:07.345Z,11
2018-07-13T04:19:09.341Z,12
2018-07-13T04:20:11.631Z,12
2018-07-13T04:21:13.630Z,12
2018-07-13T04:22:15.948Z,11
2018-07-13T04:23:17.950Z,11
2018-07-13T04:24:20.223Z,13
2018-07-13T04:25:22.211Z,13
2018-07-13T04:26:24.492Z,13
2018-07-13T04:27:26.487Z,14
2018-07-13T04:28:28.477Z,14
2018-07-13T04:29:30.473Z,15
2018-07-13T04:30:32.457Z,16
2018-07-13T04:31:34.458Z,16
2018-07-13T04:32:36.441Z,15
2018-07-13T04:33:38.434Z,15
2018-07-13T04:34:40.704Z,15
2018-07-13T04:35:42.708Z,15
2018-07-13T04:36:44.692Z,16
2018-07-13T04:37:46.684Z,17
2018-07-13T04:38:48.679Z,16
2018-07-13T04:39:51.356Z,17
2018-07-13T04:40:53.754Z,19
2018-07-13T04:41:55.745Z,18
2018-07-13T04:42:57.741Z,16
2018-07-13T04:43:59.731Z,17
2018-07-13T04:45:01.706Z,16
2018-07-13T04:46:03.700Z,17
2018-07-13T04:47:05.695Z,18
2018-07-13T04:48:07.687Z,16
2018-07-13T04:49:09.958Z,17
2018-07-13T04:50:12.371Z,17
2018-07-13T04:51:14.589Z,18
2018-07-13T04:52:16.571Z,19
2018-07-13T04:53:18.568Z,19
2018-07-13T04:54:20.561Z,21
2018-07-13T04:55:22.939Z,20
2018-07-13T04:56:24.962Z,19
2018-07-13T04:57:26.918Z,19
2018-07-13T04:58:29.192Z,20
2018-07-13T04:59:31.186Z,20
2018-07-13T05:00:33.588Z,20
2018-07-13T05:01:35.519Z,21
2018-07-13T05:02:37.508Z,21
2018-07-13T05:03:39.497Z,22
2018-07-13T05:04:41.487Z,21
2018-07-13T05:05:43.478Z,21
2018-07-13T05:06:45.820Z,21
2018-07-13T05:07:47.812Z,23
2018-07-13T05:08:49.792Z,26
2018-07-13T05:09:51.794Z,25
2018-07-13T05:10:53.777Z,24
2018-07-13T05:11:55.767Z,23
2018-07-13T05:12:58.044Z,23
2018-07-13T05:14:00.042Z,24
2018-07-13T05:15:02.034Z,23
2018-07-13T05:16:04.035Z,22
2018-07-13T05:17:06.324Z,23
2018-07-13T05:18:08.321Z,21
2018-07-13T05:19:10.308Z,23
2018-07-13T05:20:12.304Z,23
2018-07-13T05:21:15.057Z,25
2018-07-13T05:22:17.352Z,25
2018-07-13T05:23:19.353Z,26
2018-07-13T05:24:21.346Z,26
2018-07-13T05:25:23.341Z,24
2018-07-13T05:26:25.333Z,23
2018-07-13T05:27:27.319Z,25
2018-07-13T05:28:29.313Z,24
2018-07-13T05:29:31.302Z,24
2018-07-13T05:30:33.295Z,24
2018-07-13T05:31:35.288Z,25
2018-07-13T05:32:37.274Z,25
2018-07-13T05:33:39.264Z,25
2018-07-13T05:34:41.262Z,25
2018-07-13T05:35:43.252Z,26
2018-07-13T05:36:45.242Z,28
2018-07-13T05:37:47.236Z,30
2018-07-13T05:38:49.233Z,32
2018-07-13T05:39:51.516Z,33
2018-07-13T05:40:53.895Z,27
2018-07-13T05:41:55.899Z,23
2018-07-13T05:42:57.891Z,22
2018-07-13T05:43:59.872Z,23
2018-07-13T05:45:02.252Z,21
2018-07-13T05:46:04.245Z,20
2018-07-13T05:47:06.248Z,20
2018-07-13T05:48:08.240Z,21
2018-07-13T05:49:10.227Z,24
2018-07-13T05:50:12.600Z,22
2018-07-13T05:51:14.586Z,21
2018-07-13T05:52:16.856Z,21
2018-07-13T05:53:19.253Z,20
2018-07-13T05:54:21.243Z,20
2018-07-13T05:55:23.231Z,20
2018-07-13T05:56:25.227Z,21
2018-07-13T05:57:27.220Z,27
2018-07-13T05:58:29.210Z,29
2018-07-13T05:59:31.204Z,27
2018-07-13T06:00:33.485Z,34
2018-07-13T06:01:35.475Z,36
2018-07-13T06:02:37.459Z,39
2018-07-13T06:03:39.452Z,37
2018-07-13T06:04:41.439Z,35
2018-07-13T06:05:43.821Z,30
2018-07-13T06:06:45.822Z,26
2018-07-13T06:07:48.386Z,29
2018-07-13T06:08:50.383Z,32
2018-07-13T06:09:52.832Z,35
2018-07-13T06:10:54.821Z,32
2018-07-13T06:11:56.808Z,31
2018-07-13T06:12:58.806Z,31
2018-07-13T06:14:01.181Z,34
2018-07-13T06:15:04.082Z,41
2018-07-13T06:16:06.269Z,50
2018-07-13T06:17:08.274Z,53
2018-07-13T06:18:10.268Z,50
2018-07-13T06:19:12.262Z,49
2018-07-13T06:20:14.255Z,41
2018-07-13T06:21:16.248Z,41
2018-07-13T06:22:18.521Z,41
2018-07-13T06:23:20.511Z,36
2018-07-13T06:24:23.023Z,37
2018-07-13T06:25:25.017Z,39
2018-07-13T06:26:26.992Z,43
2018-07-13T06:27:28.991Z,42
2018-07-13T06:28:31.281Z,45
2018-07-13T06:29:33.578Z,46
2018-07-13T06:30:35.573Z,55
2018-07-13T06:31:37.674Z,51
2018-07-13T06:32:39.848Z,49
2018-07-13T06:33:42.136Z,53
2018-07-13T06:34:44.133Z,56
2018-07-13T06:35:46.143Z,46
2018-07-13T06:36:48.137Z,51
2018-07-13T06:37:50.135Z,54
2018-07-13T06:38:52.128Z,56
2018-07-13T06:39:54.126Z,64
2018-07-13T06:40:56.418Z,59
2018-07-13T06:41:58.703Z,59
2018-07-13T06:43:00.709Z,62
2018-07-13T06:44:02.712Z,57
2018-07-13T06:45:04.736Z,54
2018-07-13T06:46:06.996Z,52
2018-07-13T06:47:09.289Z,52
2018-07-13T06:48:11.280Z,54
2018-07-13T06:49:13.300Z,54
2018-07-13T06:50:15.283Z,55
2018-07-13T06:51:17.286Z,56
2018-07-13T06:52:19.288Z,57
2018-07-13T06:53:21.288Z,57
2018-07-13T06:54:23.289Z,56
2018-07-13T06:55:25.282Z,54
2018-07-13T06:56:27.279Z,55
2018-07-13T06:57:29.294Z,56
2018-07-13T06:58:31.287Z,61
2018-07-13T06:59:33.561Z,63
2018-07-13T07:00:35.561Z,52
2018-07-13T07:01:37.557Z,51
2018-07-13T07:02:39.561Z,51
2018-07-13T07:03:41.562Z,51
2018-07-13T07:04:43.952Z,51
2018-07-13T07:05:46.511Z,51
2018-07-13T07:06:48.501Z,51
2018-07-13T07:07:50.502Z,52
2018-07-13T07:08:52.502Z,52
2018-07-13T07:09:54.505Z,53
2018-07-13T07:10:56.789Z,52
2018-07-13T07:11:59.402Z,52
2018-07-13T07:13:01.411Z,53
2018-07-13T07:14:03.464Z,54
2018-07-13T07:15:05.463Z,56
2018-07-13T07:16:07.885Z,59
2018-07-13T07:17:09.894Z,62
2018-07-13T07:18:12.184Z,63
2018-07-13T07:19:14.254Z,66
2018-07-13T07:20:16.568Z,61
2018-07-13T07:21:18.669Z,59
2018-07-13T07:22:20.943Z,55
2018-07-13T07:23:23.002Z,54
2018-07-13T07:24:25.057Z,53
2018-07-13T07:25:27.025Z,53
2018-07-13T07:26:29.093Z,53
2018-07-13T07:27:31.092Z,54
2018-07-13T07:28:33.178Z,54
2018-07-13T07:29:35.184Z,55
2018-07-13T07:30:37.234Z,57
2018-07-13T07:31:39.580Z,60
2018-07-13T07:32:41.574Z,64
2018-07-13T07:33:43.653Z,62
2018-07-13T07:34:45.661Z,63
2018-07-13T07:35:47.664Z,60
2018-07-13T07:36:49.945Z,60
2018-07-13T07:37:51.946Z,65
2018-07-13T07:38:54.329Z,69
2018-07-13T07:39:56.342Z,65
2018-07-13T07:40:58.621Z,64
2018-07-13T07:42:00.626Z,63
2018-07-13T07:43:02.636Z,63
2018-07-13T07:44:05.123Z,61
2018-07-13T07:45:07.116Z,60
2018-07-13T07:46:09.125Z,59
2018-07-13T07:47:11.133Z,60
2018-07-13T07:48:13.142Z,60
2018-07-13T07:49:15.144Z,60
2018-07-13T07:50:17.144Z,60
2018-07-13T07:51:19.142Z,60
2018-07-13T07:52:21.147Z,60
2018-07-13T07:53:23.148Z,61
2018-07-13T07:54:25.450Z,61
2018-07-13T07:55:28.005Z,62
2018-07-13T07:56:30.291Z,61
2018-07-13T07:57:32.295Z,62
2018-07-13T07:58:34.282Z,62
2018-07-13T07:59:36.286Z,62
2018-07-13T08:00:38.290Z,63
2018-07-13T08:01:40.350Z,63
2018-07-13T08:02:42.300Z,64
2018-07-13T08:03:44.309Z,66
2018-07-13T08:04:46.309Z,68
2018-07-13T08:05:49.257Z,70
2018-07-13T08:06:51.580Z,72
2018-07-13T08:07:53.270Z,74
2018-07-13T08:08:55.272Z,76
2018-07-13T08:09:57.274Z,83
2018-07-13T08:10:59.677Z,88
2018-07-13T08:12:01.678Z,93
2018-07-13T08:13:03.671Z,94
2018-07-13T08:14:07.114Z,94
2018-07-13T08:15:09.066Z,91
2018-07-13T08:16:11.062Z,87
2018-07-13T08:17:13.356Z,83
2018-07-13T08:18:16.029Z,79
2018-07-13T08:19:18.040Z,76
2018-07-13T08:20:20.311Z,70
2018-07-13T08:21:22.313Z,65
2018-07-13T08:22:24.321Z,67
2018-07-13T08:23:26.322Z,74
2018-07-13T08:24:28.328Z,76
2018-07-13T08:25:30.334Z,78
2018-07-13T08:26:32.746Z,78
2018-07-13T08:27:34.750Z,79
2018-07-13T08:28:36.749Z,80
2018-07-13T08:29:38.762Z,79
2018-07-13T08:30:40.763Z,79
2018-07-13T08:31:43.046Z,76
2018-07-13T08:32:45.050Z,80
2018-07-13T08:33:47.051Z,96
2018-07-13T08:34:49.062Z,135
2018-07-13T08:35:51.056Z,161
2018-07-13T08:36:53.066Z,140
2018-07-13T08:37:55.067Z,158
2018-07-13T08:38:57.069Z,142
2018-07-13T08:39:59.072Z,170
2018-07-13T08:41:01.072Z,147
2018-07-13T08:42:03.084Z,152
2018-07-13T08:43:05.088Z,138
2018-07-13T08:44:07.155Z,199
2018-07-13T08:45:09.087Z,266
2018-07-13T08:46:11.076Z,305
2018-07-13T08:47:13.085Z,345
2018-07-13T08:48:15.090Z,338
2018-07-13T08:49:17.369Z,318
2018-07-13T08:50:19.436Z,339
2018-07-13T08:51:21.376Z,348
2018-07-13T08:52:23.759Z,324
2018-07-13T08:53:25.807Z,332
2018-07-13T08:54:27.852Z,334
2018-07-13T08:55:29.904Z,322
2018-07-13T08:56:31.954Z,339
2018-07-13T08:57:34.330Z,359
2018-07-13T08:58:36.395Z,329
2018-07-13T08:59:38.877Z,338
2018-07-13T09:00:40.919Z,349
2018-07-13T09:01:43.401Z,359
2018-07-13T09:02:45.400Z,376
2018-07-13T09:03:47.476Z,368
2018-07-13T09:04:49.983Z,355
2018-07-13T09:05:52.108Z,363
2018-07-13T09:06:54.108Z,383
2018-07-13T09:07:56.170Z,363
2018-07-13T09:08:58.246Z,349
2018-07-13T09:10:01.006Z,378
2018-07-13T09:11:03.363Z,389
2018-07-13T09:12:05.408Z,399
2018-07-13T09:13:07.507Z,414
2018-07-13T09:14:09.566Z,406
2018-07-13T09:15:11.941Z,417
2018-07-13T09:16:14.000Z,403
2018-07-13T09:17:16.043Z,395
2018-07-13T09:18:18.195Z,374
2018-07-13T09:19:20.162Z,355
2018-07-13T09:20:22.209Z,348
2018-07-13T09:21:24.263Z,334
2018-07-13T09:22:26.317Z,335
2018-07-13T09:23:28.652Z,344
2018-07-13T09:24:30.695Z,336
2018-07-13T09:25:32.739Z,302
2018-07-13T09:26:34.792Z,284
2018-07-13T09:27:36.859Z,287
2018-07-13T09:28:38.906Z,282
2018-07-13T09:29:40.953Z,283
2018-07-13T09:30:43.012Z,305
2018-07-13T09:31:45.069Z,320
2018-07-13T09:32:47.119Z,324
2018-07-13T09:33:49.228Z,312
2018-07-13T09:34:51.676Z,307
2018-07-13T09:35:53.776Z,341
2018-07-13T09:36:56.110Z,381
2018-07-13T09:37:58.230Z,385
2018-07-13T09:39:00.680Z,384
2018-07-13T09:40:03.513Z,405
2018-07-13T09:41:05.858Z,401
2018-07-13T09:42:07.909Z,416
2018-07-13T09:43:10.249Z,413
2018-07-13T09:44:12.683Z,419
2018-07-13T09:45:15.355Z,417
2018-07-13T09:46:17.699Z,398
2018-07-13T09:47:20.198Z,416
2018-07-13T09:48:22.246Z,400
2018-07-13T09:49:24.360Z,423
2018-07-13T09:50:26.403Z,412
2018-07-13T09:51:28.455Z,398
2018-07-13T09:52:30.795Z,376
2018-07-13T09:53:33.255Z,386
2018-07-13T09:54:35.309Z,390
2018-07-13T09:55:37.335Z,371
2018-07-13T09:56:39.467Z,390
2018-07-13T09:57:41.808Z,418
2018-07-13T09:58:43.862Z,438
2018-07-13T09:59:45.942Z,437
2018-07-13T10:00:48.181Z,458
2018-07-13T10:01:50.173Z,478
2018-07-13T10:02:52.540Z,459
2018-07-13T10:03:54.927Z,468
2018-07-13T10:04:56.976Z,470
2018-07-13T10:05:59.058Z,466
2018-07-13T10:07:01.154Z,452
2018-07-13T10:08:03.801Z,486
2018-07-13T10:09:05.938Z,430
2018-07-13T10:10:07.980Z,435
2018-07-13T10:11:10.345Z,471
2018-07-13T10:12:12.775Z,441
2018-07-13T10:13:15.117Z,427
2018-07-13T10:14:17.178Z,434
2018-07-13T10:15:19.289Z,449
2018-07-13T10:16:21.338Z,445
2018-07-13T10:17:23.397Z,417
2018-07-13T10:18:25.485Z,431
2018-07-13T10:19:27.923Z,437
2018-07-13T10:20:29.971Z,439
2018-07-13T10:21:32.409Z,406
2018-07-13T10:22:34.469Z,399
2018-07-13T10:23:36.511Z,413
2018-07-13T10:24:38.741Z,419
2018-07-13T10:25:41.213Z,413
2018-07-13T10:26:43.766Z,442
2018-07-13T10:27:46.208Z,469
2018-07-13T10:28:48.261Z,443
2018-07-13T10:29:50.316Z,432
2018-07-13T10:30:52.378Z,476
2018-07-13T10:31:55.101Z,457
2018-07-13T10:32:57.158Z,498
2018-07-13T10:33:59.224Z,493
2018-07-13T10:35:01.789Z,488
2018-07-13T10:36:04.210Z,535
2018-07-13T10:37:06.259Z,485
2018-07-13T10:38:08.311Z,504
2018-07-13T10:39:10.665Z,495
2018-07-13T10:40:12.720Z,502
2018-07-13T10:41:14.769Z,492
2018-07-13T10:42:16.848Z,510
2018-07-13T10:43:19.291Z,520
2018-07-13T10:44:21.463Z,539
2018-07-13T10:45:23.521Z,497
2018-07-13T10:46:25.598Z,479
2018-07-13T10:47:27.966Z,508
2018-07-13T10:48:30.696Z,478
2018-07-13T10:49:32.759Z,472
2018-07-13T10:50:34.819Z,514
2018-07-13T10:51:37.556Z,495
2018-07-13T10:52:39.934Z,476
2018-07-13T10:53:42.075Z,492
2018-07-13T10:54:44.541Z,568
2018-07-13T10:55:46.608Z,548
2018-07-13T10:56:48.936Z,457
2018-07-13T10:57:50.994Z,490
2018-07-13T10:58:53.054Z,484
2018-07-13T10:59:55.111Z,444
2018-07-13T11:00:57.174Z,458
2018-07-13T11:01:59.657Z,472
2018-07-13T11:03:01.845Z,476
2018-07-13T11:04:03.897Z,477
2018-07-13T11:05:05.954Z,523
2018-07-13T11:06:08.028Z,522
2018-07-13T11:07:10.675Z,503
2018-07-13T11:08:12.734Z,469
2018-07-13T11:09:14.805Z,490
2018-07-13T11:10:16.863Z,459
2018-07-13T11:11:18.928Z,442
2018-07-13T11:12:21.375Z,445
2018-07-13T11:13:23.709Z,476
2018-07-13T11:14:25.769Z,441
2018-07-13T11:15:27.836Z,383
2018-07-13T11:16:29.892Z,379
2018-07-13T11:17:31.936Z,403
2018-07-13T11:18:34.001Z,457
2018-07-13T11:19:36.115Z,442
2018-07-13T11:20:38.173Z,448
2018-07-13T11:21:40.225Z,466
2018-07-13T11:22:42.284Z,464
2018-07-13T11:23:44.632Z,473
2018-07-13T11:24:46.687Z,437
2018-07-13T11:25:48.742Z,405
2018-07-13T11:26:50.806Z,482
2018-07-13T11:27:52.867Z,513
2018-07-13T11:28:54.919Z,507
2018-07-13T11:29:56.975Z,545
2018-07-13T11:30:59.041Z,518
2018-07-13T11:32:01.082Z,508
2018-07-13T11:33:03.141Z,469
2018-07-13T11:34:05.591Z,435
2018-07-13T11:35:07.645Z,490
2018-07-13T11:36:10.089Z,477
2018-07-13T11:37:12.403Z,445
2018-07-13T11:38:14.208Z,432
2018-07-13T11:39:16.258Z,452
2018-07-13T11:40:18.604Z,456
2018-07-13T11:41:20.668Z,473
2018-07-13T11:42:23.317Z,463
2018-07-13T11:43:25.377Z,513
2018-07-13T11:44:27.436Z,541
2018-07-13T11:45:29.496Z,485
2018-07-13T11:46:31.562Z,441
2018-07-13T11:47:33.618Z,474
2018-07-13T11:48:35.954Z,487
2018-07-13T11:49:38.016Z,485
2018-07-13T11:50:40.353Z,492
2018-07-13T11:51:42.439Z,464
2018-07-13T11:52:44.497Z,440
2018-07-13T11:53:46.842Z,529
2018-07-13T11:54:48.915Z,558
2018-07-13T11:55:52.047Z,518
2018-07-13T11:56:54.096Z,506
2018-07-13T11:57:56.162Z,491
2018-07-13T11:58:58.211Z,481
2018-07-13T12:00:00.266Z,511
2018-07-13T12:01:02.336Z,528
2018-07-13T12:02:04.697Z,510
2018-07-13T12:03:06.759Z,501
2018-07-13T12:04:08.817Z,481
2018-07-13T12:05:11.184Z,489
2018-07-13T12:06:13.591Z,507
2018-07-13T12:07:15.928Z,493
2018-07-13T12:08:17.985Z,477
2018-07-13T12:09:20.040Z,455
2018-07-13T12:10:22.105Z,445
2018-07-13T12:11:24.175Z,452
2018-07-13T12:12:26.577Z,483
2018-07-13T12:13:28.636Z,494
2018-07-13T12:14:30.818Z,475
2018-07-13T12:15:32.760Z,457
2018-07-13T12:16:34.894Z,467
2018-07-13T12:17:37.587Z,520
2018-07-13T12:18:39.582Z,507
2018-07-13T12:19:41.640Z,479
2018-07-13T12:20:43.695Z,521
2018-07-13T12:21:45.765Z,525
2018-07-13T12:22:47.825Z,475
2018-07-13T12:23:50.326Z,474
2018-07-13T12:24:52.689Z,468
2018-07-13T12:25:54.747Z,483
2018-07-13T12:26:57.703Z,516
2018-07-13T12:27:59.698Z,514
2018-07-13T12:29:01.762Z,501
2018-07-13T12:30:03.840Z,549
2018-07-13T12:31:06.561Z,523
2018-07-13T12:32:08.622Z,475
2018-07-13T12:33:11.268Z,482
2018-07-13T12:34:13.327Z,430
2018-07-13T12:35:15.390Z,407
2018-07-13T12:36:17.450Z,428
2018-07-13T12:37:19.508Z,450
2018-07-13T12:38:21.554Z,467
2018-07-13T12:39:23.935Z,483
2018-07-13T12:40:26.005Z,475
2018-07-13T12:41:28.341Z,437
2018-07-13T12:42:30.400Z,430
2018-07-13T12:43:32.468Z,409
2018-07-13T12:44:34.839Z,415
2018-07-13T12:45:36.884Z,427
2018-07-13T12:46:38.941Z,428
2018-07-13T12:47:41.006Z,420
2018-07-13T12:48:43.344Z,415
2018-07-13T12:49:45.410Z,456
2018-07-13T12:50:47.473Z,409
2018-07-13T12:51:49.838Z,470
2018-07-13T12:52:51.896Z,436
2018-07-13T12:53:54.005Z,473
2018-07-13T12:54:56.022Z,489
2018-07-13T12:55:58.082Z,484
2018-07-13T12:57:00.141Z,158
2018-07-13T12:58:02.206Z,141
2018-07-13T12:59:04.929Z,452
2018-07-13T13:00:06.997Z,141
2018-07-13T13:01:09.053Z,121
2018-07-13T13:02:11.116Z,300
2018-07-13T13:03:13.171Z,392
2018-07-13T13:04:15.239Z,377
2018-07-13T13:05:17.299Z,401
2018-07-13T13:06:19.355Z,399
2018-07-13T13:07:21.704Z,402
2018-07-13T13:08:23.762Z,233
2018-07-13T13:09:25.821Z,396
2018-07-13T13:10:27.886Z,413
2018-07-13T13:11:29.944Z,453
2018-07-13T13:12:32.604Z,461
2018-07-13T13:13:34.657Z,455
2018-07-13T13:14:36.720Z,436
2018-07-13T13:15:39.170Z,300
2018-07-13T13:16:41.514Z,390
2018-07-13T13:17:43.575Z,418
2018-07-13T13:18:45.633Z,407
2018-07-13T13:19:47.685Z,405
2018-07-13T13:20:49.762Z,406
2018-07-13T13:21:52.456Z,387
2018-07-13T13:22:54.890Z,382
2018-07-13T13:23:56.950Z,388
2018-07-13T13:24:59.011Z,398
2018-07-13T13:26:01.059Z,404
2018-07-13T13:27:03.127Z,405
2018-07-13T13:28:05.189Z,422
2018-07-13T13:29:07.578Z,418
2018-07-13T13:30:10.017Z,420
2018-07-13T13:31:12.078Z,414
2018-07-13T13:32:14.139Z,418
2018-07-13T13:33:16.483Z,420
2018-07-13T13:34:18.540Z,415
2018-07-13T13:35:20.604Z,376
2018-07-13T13:36:22.663Z,390
2018-07-13T13:37:25.118Z,387
2018-07-13T13:38:27.180Z,392
2018-07-13T13:39:29.528Z,384
2018-07-13T13:40:31.803Z,403
2018-07-13T13:41:33.863Z,301
2018-07-13T13:42:35.922Z,401
2018-07-13T13:43:37.986Z,412
2018-07-13T13:44:40.542Z,394
2018-07-13T13:45:43.285Z,394
2018-07-13T13:46:45.335Z,121
2018-07-13T13:47:47.402Z,388
2018-07-13T13:48:49.777Z,394
2018-07-13T13:49:52.299Z,364
2018-07-13T13:50:54.363Z,415
2018-07-13T13:51:56.439Z,422
2018-07-13T13:52:58.499Z,386
2018-07-13T13:54:00.560Z,220
2018-07-13T13:55:02.621Z,377
2018-07-13T13:56:05.080Z,394
2018-07-13T13:57:07.141Z,359
2018-07-13T13:58:09.204Z,359
2018-07-13T13:59:11.267Z,396
2018-07-13T14:00:13.341Z,116
2018-07-13T14:01:15.395Z,131
2018-07-13T14:02:17.465Z,357
2018-07-13T14:03:19.528Z,375
2018-07-13T14:04:21.979Z,361
2018-07-13T14:05:24.096Z,329
2018-07-13T14:06:26.484Z,338
2018-07-13T14:07:28.563Z,337
2018-07-13T14:08:30.645Z,341
2018-07-13T14:09:32.702Z,349
2018-07-13T14:10:34.773Z,372
2018-07-13T14:11:36.840Z,363
2018-07-13T14:12:39.203Z,342
2018-07-13T14:13:41.786Z,345
2018-07-13T14:14:44.045Z,345
2018-07-13T14:15:46.100Z,358
2018-07-13T14:16:48.468Z,349
2018-07-13T14:17:50.523Z,351
2018-07-13T14:18:52.590Z,354
2018-07-13T14:19:54.652Z,317
2018-07-13T14:20:56.716Z,201
2018-07-13T14:21:59.078Z,317
2018-07-13T14:23:01.139Z,327
2018-07-13T14:24:03.205Z,329
2018-07-13T14:25:05.278Z,347
2018-07-13T14:26:07.342Z,343
2018-07-13T14:27:09.689Z,330
2018-07-13T14:28:11.803Z,325
2018-07-13T14:29:14.125Z,322
2018-07-13T14:30:16.474Z,327
2018-07-13T14:31:18.542Z,343
2018-07-13T14:32:20.610Z,365
2018-07-13T14:33:22.687Z,342
2018-07-13T14:34:25.175Z,332
2018-07-13T14:35:27.226Z,341
2018-07-13T14:36:29.604Z,334
2018-07-13T14:37:31.988Z,303
2018-07-13T14:38:34.057Z,319
2018-07-13T14:39:36.118Z,340
2018-07-13T14:40:38.581Z,337
2018-07-13T14:41:40.922Z,331